Time;durP1;ratioP1;P1;durP2;ratioP2;P2;SDS_P1;SDS_P2;PMS_P1;PMS_P2;Temp;Humidity;BMP_temperature;BMP_pressure;BME280_temperature;BME280_humidity;BME280_pressure;Samples;Min_cycle;Max_cycle;Signal;HPM_P1;HPM_P2
2023/12/21 00:01:56;;;;;;;2.73;1.20;;;;;;;6.28;100.00;100157.22;5077122;28;20234;-77
2023/12/21 00:04:21;;;;;;;1.80;0.90;;;;;;;6.29;100.00;100153.81;5078464;28;20260;-77
2023/12/21 00:06:47;;;;;;;2.13;1.10;;;;;;;6.28;100.00;100152.09;5076803;28;20280;-76
2023/12/21 00:09:12;;;;;;;2.10;1.20;;;;;;;6.22;100.00;100142.63;5077619;28;20264;-78
2023/12/21 00:11:37;;;;;;;2.60;1.10;;;;;;;6.25;100.00;100145.22;5076454;28;20287;-77
2023/12/21 00:14:03;;;;;;;1.67;0.97;;;;;;;6.30;100.00;100124.69;5078349;28;20542;-76
2023/12/21 00:16:28;;;;;;;2.00;1.00;;;;;;;6.25;100.00;100129.81;5078930;28;20195;-77
2023/12/21 00:18:54;;;;;;;1.80;1.10;;;;;;;6.27;100.00;100113.53;5078712;28;20692;-76
2023/12/21 00:21:19;;;;;;;2.50;1.20;;;;;;;6.23;100.00;100108.38;5076814;28;20178;-77
2023/12/21 00:23:45;;;;;;;2.03;1.30;;;;;;;6.20;100.00;100107.50;5077985;28;20300;-76
2023/12/21 00:26:10;;;;;;;2.43;1.00;;;;;;;6.20;100.00;100110.94;5082299;28;20188;-77
2023/12/21 00:28:36;;;;;;;1.63;1.20;;;;;;;6.24;100.00;100114.41;5073047;28;20235;-77
2023/12/21 00:31:02;;;;;;;2.33;1.03;;;;;;;6.32;100.00;100123.00;5071871;28;20312;-78
2023/12/21 00:33:28;;;;;;;2.20;1.00;;;;;;;6.29;100.00;100122.13;5074332;28;20226;-77
2023/12/21 00:35:53;;;;;;;2.03;1.27;;;;;;;6.26;100.00;100120.41;5074775;28;20960;-76
2023/12/21 00:38:18;;;;;;;2.40;1.37;;;;;;;6.30;100.00;100116.13;5074418;28;20215;-76
2023/12/21 00:40:44;;;;;;;1.57;0.80;;;;;;;6.33;100.00;100114.44;5076867;28;20296;-76
2023/12/21 00:43:09;;;;;;;1.67;0.93;;;;;;;6.29;100.00;100117.00;5081010;28;20270;-77
2023/12/21 00:45:34;;;;;;;1.50;0.80;;;;;;;6.31;100.00;100115.28;5075678;28;20179;-76
2023/12/21 00:48:00;;;;;;;1.53;0.80;;;;;;;6.32;100.00;100105.00;5078830;28;20218;-77
2023/12/21 00:50:25;;;;;;;2.27;1.23;;;;;;;6.28;100.00;100108.41;5079526;28;20183;-78
2023/12/21 00:52:51;;;;;;;2.10;1.10;;;;;;;6.32;100.00;100083.59;5075317;28;20659;-77
2023/12/21 00:55:16;;;;;;;2.37;0.80;;;;;;;6.30;100.00;100091.28;5074038;28;20187;-77
2023/12/21 00:57:41;;;;;;;1.33;0.90;;;;;;;6.35;100.00;100102.47;5074239;28;20229;-78
2023/12/21 01:00:07;;;;;;;1.53;0.80;;;;;;;6.33;100.00;100093.88;5076705;28;20211;-78
2023/12/21 01:02:34;;;;;;;1.83;0.70;;;;;;;6.30;100.00;100081.00;5073013;28;21003;-77
2023/12/21 01:05:00;;;;;;;1.40;0.90;;;;;;;6.38;100.00;100074.22;5077256;28;20215;-77
2023/12/21 01:07:25;;;;;;;1.53;0.77;;;;;;;6.36;100.00;100063.06;5072728;28;20195;-75
2023/12/21 01:09:50;;;;;;;1.40;0.80;;;;;;;6.34;100.00;100062.19;5078384;28;20247;-77
2023/12/21 01:12:15;;;;;;;1.20;0.67;;;;;;;6.39;100.00;100051.91;5077260;28;20221;-77
2023/12/21 01:14:41;;;;;;;0.83;0.80;;;;;;;6.38;100.00;100040.78;5077106;28;20187;-76
2023/12/21 01:17:06;;;;;;;1.43;0.80;;;;;;;6.37;100.00;100035.63;5079554;28;20181;-76
2023/12/21 01:19:32;;;;;;;1.30;0.70;;;;;;;6.40;100.00;100035.66;5077034;28;20254;-77
2023/12/21 01:21:57;;;;;;;0.87;0.50;;;;;;;6.44;100.00;100026.22;5066690;28;20206;-78
2023/12/21 01:24:22;;;;;;;1.37;0.60;;;;;;;6.40;100.00;100007.38;5073990;28;20188;-77
2023/12/21 01:26:48;;;;;;;0.87;0.63;;;;;;;6.42;100.00;100004.81;5079140;28;20526;-78
2023/12/21 01:29:13;;;;;;;1.80;0.70;;;;;;;6.41;100.00;100011.66;5078211;28;20216;-78
2023/12/21 01:31:39;;;;;;;1.13;0.60;;;;;;;6.36;100.00;100021.06;5076754;28;20277;-76
2023/12/21 01:34:07;;;;;;;0.83;0.60;;;;;;;6.32;100.00;100014.22;5078234;28;20246;-76
2023/12/21 01:36:32;;;;;;;0.73;0.60;;;;;;;6.31;100.00;100017.63;5080248;28;20183;-77
2023/12/21 01:38:57;;;;;;;1.73;0.80;;;;;;;6.33;100.00;100018.50;5081092;28;20764;-77
2023/12/21 01:41:24;;;;;;;0.87;0.70;;;;;;;6.35;100.00;100001.38;5085335;28;20214;-78
2023/12/21 01:43:50;;;;;;;1.63;0.70;;;;;;;6.36;100.00;100003.06;5080834;28;20198;-77
2023/12/21 01:46:15;;;;;;;1.20;0.53;;;;;;;6.43;100.00;100003.97;5086262;28;20261;-77
2023/12/21 01:48:42;;;;;;;1.17;0.60;;;;;;;6.37;100.00;99997.06;5086914;28;20208;-78
2023/12/21 01:51:09;;;;;;;1.70;0.80;;;;;;;6.31;100.00;99985.06;5086456;28;20760;-78
2023/12/21 01:53:36;;;;;;;1.67;0.90;;;;;;;6.38;100.00;99989.38;5082167;28;20208;-78
2023/12/21 01:56:02;;;;;;;1.50;1.00;;;;;;;6.43;100.00;99997.09;5083668;28;20736;-77
2023/12/21 01:58:28;;;;;;;1.83;0.80;;;;;;;6.40;100.00;99997.09;5079966;28;20218;-76
2023/12/21 02:00:57;;;;;;;0.80;0.60;;;;;;;6.40;100.00;99987.69;5087745;28;20281;-77
2023/12/21 02:03:23;;;;;;;0.77;0.50;;;;;;;6.42;100.00;99982.53;5085012;28;20233;-77
2023/12/21 02:05:48;;;;;;;0.83;0.60;;;;;;;6.40;100.00;99977.41;5085892;28;20190;-77
2023/12/21 02:08:14;;;;;;;0.70;0.63;;;;;;;6.43;100.00;99970.56;5081081;28;20218;-78
2023/12/21 02:10:40;;;;;;;1.93;0.80;;;;;;;6.44;100.00;99952.56;5085878;28;20699;-77
2023/12/21 02:13:06;;;;;;;1.17;0.50;;;;;;;6.46;100.00;99955.13;5083830;28;20243;-77
2023/12/21 02:15:32;;;;;;;1.23;0.60;;;;;;;6.49;100.00;99950.88;5086115;28;20192;-78
2023/12/21 02:18:01;;;;;;;0.90;0.40;;;;;;;6.48;100.00;99940.56;5082267;28;20234;-77
2023/12/21 02:20:27;;;;;;;0.77;0.50;;;;;;;6.48;100.00;99935.41;5087533;28;20762;-78
2023/12/21 02:22:54;;;;;;;1.57;0.50;;;;;;;6.42;100.00;99930.28;5086598;28;20246;-77
2023/12/21 02:25:19;;;;;;;1.37;0.70;;;;;;;6.42;100.00;99930.28;5087790;28;20201;-78
2023/12/21 02:27:49;;;;;;;1.83;0.87;;;;;;;6.50;100.00;99921.72;5081759;28;20236;-77
2023/12/21 02:30:14;;;;;;;1.00;0.50;;;;;;;6.50;100.00;99929.44;5079575;28;20195;-77
2023/12/21 02:32:40;;;;;;;0.30;0.30;;;;;;;6.52;100.00;99916.59;5084767;28;20211;-78
2023/12/21 02:35:05;;;;;;;0.50;0.50;;;;;;;6.47;100.00;99916.56;5084994;28;20194;-76
2023/12/21 02:37:31;;;;;;;0.90;0.50;;;;;;;6.48;100.00;99908.00;5086687;28;20675;-78
2023/12/21 02:39:56;;;;;;;0.80;0.50;;;;;;;6.49;100.00;99906.28;5084109;28;20194;-77
2023/12/21 02:42:21;;;;;;;1.57;0.50;;;;;;;6.48;100.00;99905.44;5085263;28;20642;-77
2023/12/21 02:44:47;;;;;;;0.63;0.27;;;;;;;6.50;100.00;99900.28;5085572;28;20191;-77
2023/12/21 02:47:12;;;;;;;0.43;0.43;;;;;;;6.50;100.00;99883.16;5086335;28;20187;-77
2023/12/21 02:49:37;;;;;;;0.67;0.40;;;;;;;6.47;100.00;99869.44;5079888;28;20211;-77
2023/12/21 02:52:03;;;;;;;1.10;0.33;;;;;;;6.51;100.00;99869.44;5085327;28;20217;-78
2023/12/21 02:54:29;;;;;;;0.47;0.40;;;;;;;6.46;100.00;99845.44;5079780;28;20664;-77
2023/12/21 02:56:54;;;;;;;0.50;0.30;;;;;;;6.50;100.00;99836.91;5078523;28;20259;-77
2023/12/21 02:59:19;;;;;;;1.97;0.40;;;;;;;6.51;100.00;99820.59;5081175;28;20277;-77
2023/12/21 03:01:45;;;;;;;1.00;0.53;;;;;;;6.51;100.00;99814.59;5077804;28;20296;-77
2023/12/21 03:04:11;;;;;;;0.67;0.40;;;;;;;6.52;100.00;99816.31;5078361;28;20201;-78
2023/12/21 03:06:37;;;;;;;0.50;0.30;;;;;;;6.50;100.00;99829.19;5079750;28;20207;-76
2023/12/21 03:09:02;;;;;;;0.33;0.30;;;;;;;6.50;100.00;99839.47;5076874;28;20216;-77
2023/12/21 03:11:28;;;;;;;1.10;0.30;;;;;;;6.53;100.00;99846.31;5078706;28;20194;-77
2023/12/21 03:13:53;;;;;;;1.40;0.50;;;;;;;6.54;100.00;99817.19;5077132;28;20217;-77
2023/12/21 03:16:18;;;;;;;0.40;0.40;;;;;;;6.54;100.00;99801.75;5076231;28;20198;-77
2023/12/21 03:18:47;;;;;;;0.80;0.40;;;;;;;6.53;100.00;99815.47;5078291;28;20281;-77
2023/12/21 03:21:14;;;;;;;0.53;0.37;;;;;;;6.59;100.00;99802.59;5081962;28;20488;-76
2023/12/21 03:23:40;;;;;;;0.50;0.30;;;;;;;6.60;100.00;99794.03;5077474;28;20268;-77
2023/12/21 03:26:07;;;;;;;1.30;0.30;;;;;;;6.57;100.00;99801.75;5081055;28;20273;-77
2023/12/21 03:28:33;;;;;;;0.90;0.30;;;;;;;6.60;100.00;99804.31;5073517;28;20672;-78
2023/12/21 03:30:58;;;;;;;0.50;0.40;;;;;;;6.60;100.00;99788.03;5078264;28;20187;-76
2023/12/21 03:33:23;;;;;;;0.50;0.30;;;;;;;6.63;100.00;99788.88;5074930;28;20215;-77
2023/12/21 03:35:48;;;;;;;0.80;0.40;;;;;;;6.61;100.00;99772.59;5079155;28;20181;-78
2023/12/21 03:38:14;;;;;;;0.50;0.30;;;;;;;6.60;100.00;99775.19;5079100;28;20293;-76
2023/12/21 03:40:39;;;;;;;0.40;0.20;;;;;;;6.67;100.00;99779.44;5081151;28;20183;-77
2023/12/21 03:43:05;;;;;;;1.30;0.30;;;;;;;6.68;100.00;99771.75;5075502;28;20184;-77
2023/12/21 03:45:30;;;;;;;0.53;0.30;;;;;;;6.69;100.00;99770.00;5074207;28;20277;-76
2023/12/21 03:47:55;;;;;;;0.73;0.30;;;;;;;6.69;100.00;99765.75;5074162;28;20223;-77
2023/12/21 03:50:20;;;;;;;0.30;0.30;;;;;;;6.73;100.00;99764.00;5079896;28;20226;-77
2023/12/21 03:52:46;;;;;;;0.40;0.40;;;;;;;6.75;100.00;99770.03;5073416;28;20301;-77
2023/12/21 03:55:11;;;;;;;0.77;0.30;;;;;;;6.78;100.00;99759.72;5070186;28;20646;-77
2023/12/21 03:57:36;;;;;;;0.30;0.30;;;;;;;6.71;100.00;99758.88;5073602;28;20299;-77
2023/12/21 04:00:03;;;;;;;0.40;0.40;;;;;;;6.79;100.00;99750.28;5078098;28;20227;-78
2023/12/21 04:02:28;;;;;;;0.27;0.20;;;;;;;6.78;100.00;99756.28;5079138;28;20239;-76
2023/12/21 04:04:53;;;;;;;0.40;0.30;;;;;;;6.79;100.00;99745.13;5072790;28;20182;-76
2023/12/21 04:07:19;;;;;;;1.70;0.33;;;;;;;6.77;100.00;99757.13;5077436;28;20204;-77
2023/12/21 04:09:44;;;;;;;0.30;0.20;;;;;;;6.78;100.00;99740.84;5080379;28;20184;-77
2023/12/21 04:12:09;;;;;;;0.83;0.40;;;;;;;6.77;100.00;99752.00;5074818;28;20222;-77
2023/12/21 04:14:34;;;;;;;0.43;0.43;;;;;;;6.81;100.00;99739.13;5078769;28;20449;-77
2023/12/21 04:17:00;;;;;;;1.50;0.20;;;;;;;6.78;100.00;99731.44;5076962;28;20192;-77
2023/12/21 04:19:25;;;;;;;1.00;0.30;;;;;;;6.81;100.00;99720.28;5077728;28;20603;-77
2023/12/21 04:21:51;;;;;;;0.40;0.33;;;;;;;6.78;100.00;99726.28;5082371;28;20179;-76
2023/12/21 04:24:16;;;;;;;0.20;0.20;;;;;;;6.76;100.00;99724.56;5075342;28;20192;-77
2023/12/21 04:26:41;;;;;;;0.40;0.30;;;;;;;6.79;100.00;99732.28;5079568;28;20189;-78
2023/12/21 04:29:07;;;;;;;0.87;0.30;;;;;;;6.82;100.00;99730.56;5077615;28;20209;-77
2023/12/21 04:31:33;;;;;;;1.17;0.40;;;;;;;6.82;100.00;99727.97;5076852;28;20287;-77
2023/12/21 04:33:58;;;;;;;0.40;0.27;;;;;;;6.83;100.00;99727.13;5078000;28;20666;-77
2023/12/21 04:36:23;;;;;;;0.83;0.50;;;;;;;6.83;100.00;99736.56;5075808;28;20890;-76
2023/12/21 04:38:49;;;;;;;0.70;0.40;;;;;;;6.76;100.00;99720.28;5078833;28;20285;-77
2023/12/21 04:41:14;;;;;;;2.27;0.50;;;;;;;6.79;100.00;99714.28;5079961;28;20190;-76
2023/12/21 04:43:39;;;;;;;0.30;0.30;;;;;;;6.79;100.00;99701.41;5079012;28;20191;-78
2023/12/21 04:46:05;;;;;;;0.53;0.30;;;;;;;6.78;100.00;99713.44;5078789;28;20187;-77
2023/12/21 04:48:32;;;;;;;0.30;0.30;;;;;;;6.78;100.00;99718.59;5073908;28;20206;-77
2023/12/21 04:50:57;;;;;;;1.13;0.40;;;;;;;6.81;100.00;99730.56;5078757;28;20187;-77
2023/12/21 04:53:22;;;;;;;0.97;0.33;;;;;;;6.80;100.00;99731.44;5078279;28;20222;-78
2023/12/21 04:55:48;;;;;;;0.87;0.30;;;;;;;6.77;100.00;99710.84;5076559;28;20193;-78
2023/12/21 04:58:14;;;;;;;1.53;0.30;;;;;;;6.79;100.00;99711.72;5074966;28;20350;-78
2023/12/21 05:00:40;;;;;;;0.50;0.17;;;;;;;6.79;100.00;99704.00;5078821;28;20260;-76
2023/12/21 05:03:05;;;;;;;0.87;0.40;;;;;;;6.76;100.00;99696.28;5072876;28;20270;-78
2023/12/21 05:05:31;;;;;;;0.27;0.27;;;;;;;6.78;100.00;99692.00;5077106;28;20620;-77
2023/12/21 05:07:56;;;;;;;0.70;0.40;;;;;;;6.78;100.00;99694.56;5072543;28;20222;-77
2023/12/21 05:10:21;;;;;;;0.20;0.20;;;;;;;6.76;100.00;99683.41;5076508;28;20611;-78
2023/12/21 05:12:47;;;;;;;0.60;0.40;;;;;;;6.76;100.00;99680.84;5076727;28;20892;-77
2023/12/21 05:15:12;;;;;;;0.30;0.20;;;;;;;6.78;100.00;99692.00;5077819;28;20181;-78
2023/12/21 05:17:38;;;;;;;0.50;0.27;;;;;;;6.75;100.00;99697.13;5077199;28;20188;-76
2023/12/21 05:20:04;;;;;;;0.60;0.20;;;;;;;6.75;100.00;99692.00;5073961;28;20189;-77
2023/12/21 05:22:30;;;;;;;0.40;0.30;;;;;;;6.75;100.00;99699.72;5076030;28;20217;-78
2023/12/21 05:24:56;;;;;;;1.03;0.30;;;;;;;6.77;100.00;99686.00;5075866;28;20187;-77
2023/12/21 05:27:21;;;;;;;1.67;0.80;;;;;;;6.74;100.00;99691.16;5074532;28;20185;-77
2023/12/21 05:29:46;;;;;;;0.77;0.30;;;;;;;6.73;100.00;99679.16;5076641;28;20187;-77
2023/12/21 05:32:12;;;;;;;0.30;0.27;;;;;;;6.77;100.00;99682.56;5078438;28;20746;-77
2023/12/21 05:34:37;;;;;;;0.67;0.30;;;;;;;6.76;100.00;99686.00;5078804;28;20532;-78
2023/12/21 05:37:03;;;;;;;0.67;0.20;;;;;;;6.76;100.00;99686.00;5077109;28;20191;-77
2023/12/21 05:39:29;;;;;;;0.43;0.43;;;;;;;6.75;100.00;99680.00;5078281;28;20737;-75
2023/12/21 05:41:55;;;;;;;0.50;0.30;;;;;;;6.76;100.00;99674.00;5079067;28;20190;-78
2023/12/21 05:44:20;;;;;;;0.27;0.20;;;;;;;6.76;100.00;99668.88;5074492;28;21171;-78
2023/12/21 05:46:45;;;;;;;0.93;0.30;;;;;;;6.72;100.00;99662.00;5076537;28;20272;-78
2023/12/21 05:49:11;;;;;;;0.30;0.30;;;;;;;6.71;100.00;99639.72;5074857;28;20204;-77
2023/12/21 05:51:36;;;;;;;0.50;0.30;;;;;;;6.69;100.00;99641.44;5074924;28;20184;-78
2023/12/21 05:54:03;;;;;;;0.70;0.30;;;;;;;6.70;100.00;99648.28;5072299;28;20741;-77
2023/12/21 05:56:29;;;;;;;0.60;0.40;;;;;;;6.67;100.00;99653.44;5072951;28;20221;-76
2023/12/21 05:58:54;;;;;;;0.73;0.30;;;;;;;6.65;100.00;99652.63;5070608;28;20240;-78
2023/12/21 06:01:20;;;;;;;0.57;0.30;;;;;;;6.59;100.00;99645.75;5076417;28;20210;-77
2023/12/21 06:03:45;;;;;;;0.50;0.20;;;;;;;6.64;100.00;99632.91;5075150;28;20182;-78
2023/12/21 06:06:13;;;;;;;1.10;0.30;;;;;;;6.61;100.00;99626.03;5070537;28;20692;-77
2023/12/21 06:08:38;;;;;;;1.27;0.40;;;;;;;6.64;100.00;99620.06;5075809;28;20226;-76
2023/12/21 06:11:03;;;;;;;0.83;0.50;;;;;;;6.63;100.00;99615.78;5074100;28;20254;-76
2023/12/21 06:13:29;;;;;;;0.50;0.37;;;;;;;6.64;100.00;99612.34;5077729;28;20207;-75
2023/12/21 06:15:55;;;;;;;0.73;0.30;;;;;;;6.65;100.00;99599.47;5070874;28;20199;-77
2023/12/21 06:18:20;;;;;;;0.40;0.30;;;;;;;6.64;100.00;99605.47;5074710;28;20351;-80
2023/12/21 06:20:45;;;;;;;1.53;0.40;;;;;;;6.63;100.00;99595.19;5075138;28;20258;-79
2023/12/21 06:23:11;;;;;;;1.13;0.30;;;;;;;6.62;100.00;99586.63;5073742;28;20656;-79
2023/12/21 06:25:36;;;;;;;0.43;0.43;;;;;;;6.63;100.00;99592.63;5076964;28;20239;-76
2023/12/21 06:28:01;;;;;;;0.67;0.40;;;;;;;6.67;100.00;99571.16;5078957;28;20215;-77
2023/12/21 06:30:27;;;;;;;0.70;0.43;;;;;;;6.66;100.00;99582.31;5079061;28;20323;-78
2023/12/21 06:32:52;;;;;;;1.83;0.50;;;;;;;6.69;100.00;99572.00;5079355;28;20324;-78
2023/12/21 06:35:17;;;;;;;0.50;0.40;;;;;;;6.69;100.00;99554.88;5080078;28;20198;-76
2023/12/21 06:37:44;;;;;;;1.07;0.40;;;;;;;6.69;100.00;99570.31;5073509;28;20209;-76
2023/12/21 06:40:09;;;;;;;0.30;0.30;;;;;;;6.75;100.00;99551.44;5070612;28;20746;-77
2023/12/21 06:42:35;;;;;;;1.17;0.50;;;;;;;6.76;100.00;99545.44;5076419;28;20184;-77
2023/12/21 06:45:00;;;;;;;0.27;0.27;;;;;;;6.80;100.00;99536.84;5076122;28;20189;-78
2023/12/21 06:47:25;;;;;;;0.10;0.10;;;;;;;6.81;100.00;99559.09;5081687;28;20186;-79
2023/12/21 06:49:51;;;;;;;0.80;0.40;;;;;;;6.90;100.00;99555.63;5081340;28;20665;-78
2023/12/21 06:52:16;;;;;;;1.13;0.50;;;;;;;6.88;100.00;99562.50;5090638;28;20273;-78
2023/12/21 06:54:42;;;;;;;0.50;0.30;;;;;;;6.96;100.00;99550.44;5076217;28;20304;-77
2023/12/21 06:57:07;;;;;;;0.47;0.30;;;;;;;7.03;100.00;99548.69;5081580;28;20198;-77
2023/12/21 06:59:32;;;;;;;0.30;0.20;;;;;;;7.05;100.00;99546.97;5080392;28;20697;-78
2023/12/21 07:01:57;;;;;;;0.93;0.40;;;;;;;7.03;100.00;99540.97;5073585;28;20179;-77
2023/12/21 07:04:23;;;;;;;0.23;0.20;;;;;;;7.04;100.00;99544.38;5072242;28;20674;-77
2023/12/21 07:06:48;;;;;;;0.40;0.30;;;;;;;7.05;100.00;99536.69;5069282;28;20283;-78
2023/12/21 07:09:14;;;;;;;0.60;0.30;;;;;;;7.07;100.00;99514.38;5072370;28;20201;-78
2023/12/21 07:11:39;;;;;;;0.37;0.30;;;;;;;7.07;100.00;99500.63;5082477;28;20281;-76
2023/12/21 07:14:05;;;;;;;0.40;0.40;;;;;;;7.12;100.00;99498.88;5075233;28;20289;-77
2023/12/21 07:16:30;;;;;;;0.30;0.30;;;;;;;7.11;100.00;99485.16;5072278;28;20212;-76
2023/12/21 07:18:55;;;;;;;0.23;0.20;;;;;;;7.10;100.00;99478.34;5078874;28;20268;-78
2023/12/21 07:21:21;;;;;;;0.30;0.30;;;;;;;7.15;100.00;99491.16;5076820;28;20191;-77
2023/12/21 07:23:46;;;;;;;0.73;0.40;;;;;;;7.21;100.00;99500.53;5076258;28;20185;-77
2023/12/21 07:26:12;;;;;;;1.60;0.50;;;;;;;7.18;100.00;99486.00;5061977;28;20193;-76
2023/12/21 07:28:37;;;;;;;0.47;0.30;;;;;;;7.23;100.00;99501.38;5071344;28;20208;-78
2023/12/21 07:31:03;;;;;;;0.30;0.30;;;;;;;7.30;100.00;99479.88;5069823;28;20245;-77
2023/12/21 07:33:28;;;;;;;0.80;0.60;;;;;;;7.27;100.00;99449.00;5066246;28;20678;-78
2023/12/21 07:35:53;;;;;;;0.60;0.40;;;;;;;7.30;100.00;99446.41;5072521;28;20187;-78
2023/12/21 07:38:19;;;;;;;0.40;0.33;;;;;;;7.31;100.00;99448.97;5081266;28;20690;-78
2023/12/21 07:40:44;;;;;;;0.30;0.30;;;;;;;7.35;100.00;99448.94;5074501;28;20662;-77
2023/12/21 07:43:10;;;;;;;0.33;0.30;;;;;;;7.37;100.00;99445.50;5074844;28;20748;-77
2023/12/21 07:45:35;;;;;;;0.40;0.37;;;;;;;7.40;100.00;99468.63;5076598;28;20656;-76
2023/12/21 07:48:00;;;;;;;0.17;0.17;;;;;;;7.40;100.00;99489.22;5076596;28;20204;-78
2023/12/21 07:50:27;;;;;;;0.73;0.20;;;;;;;7.42;100.00;99487.47;5078759;28;20192;-78
2023/12/21 07:52:56;;;;;;;0.30;0.30;;;;;;;7.43;100.00;99490.91;5075574;28;20222;-78
2023/12/21 07:55:24;;;;;;;0.30;0.30;;;;;;;7.47;100.00;99490.88;5073228;28;20221;-78
2023/12/21 07:57:49;;;;;;;0.43;0.20;;;;;;;7.52;100.00;99508.84;5074889;28;20218;-78
2023/12/21 08:00:15;;;;;;;0.20;0.20;;;;;;;7.48;100.00;99484.84;5074871;28;20186;-77
2023/12/21 08:02:44;;;;;;;0.20;0.20;;;;;;;7.46;100.00;99485.75;5072391;28;20273;-77
2023/12/21 08:05:11;;;;;;;0.20;0.20;;;;;;;7.48;100.00;99463.41;5073672;28;20633;-78
2023/12/21 08:07:36;;;;;;;0.83;0.40;;;;;;;7.48;100.00;99458.28;5072190;28;20196;-78
2023/12/21 08:10:01;;;;;;;0.30;0.30;;;;;;;7.50;100.00;99468.53;5072992;28;20205;-79
2023/12/21 08:12:27;;;;;;;1.43;0.30;;;;;;;7.53;100.00;99463.38;5077260;28;20699;-78
2023/12/21 08:14:52;;;;;;;0.90;0.40;;;;;;;7.53;100.00;99447.91;5077535;28;20222;-78
2023/12/21 08:17:19;;;;;;;0.30;0.23;;;;;;;7.49;100.00;99436.78;5079601;28;20187;-78
2023/12/21 08:19:44;;;;;;;0.80;0.47;;;;;;;7.53;100.00;99437.63;5077073;28;20223;-78
2023/12/21 08:22:10;;;;;;;0.50;0.30;;;;;;;7.55;100.00;99441.88;5079883;28;20183;-78
2023/12/21 08:24:35;;;;;;;0.50;0.30;;;;;;;7.56;100.00;99446.16;5073996;28;20185;-77
2023/12/21 08:27:01;;;;;;;0.50;0.40;;;;;;;7.57;100.00;99453.03;5077059;28;20214;-78
2023/12/21 08:29:26;;;;;;;0.20;0.20;;;;;;;7.58;100.00;99439.28;5076523;28;20247;-77
2023/12/21 08:31:52;;;;;;;0.40;0.30;;;;;;;7.55;100.00;99439.31;5077675;28;20292;-78
2023/12/21 08:34:17;;;;;;;0.40;0.40;;;;;;;7.58;100.00;99444.44;5078534;28;20196;-78
2023/12/21 08:36:43;;;;;;;0.40;0.30;;;;;;;7.61;100.00;99434.09;5079071;28;20236;-78
2023/12/21 08:39:09;;;;;;;0.40;0.20;;;;;;;7.63;100.00;99436.66;5073677;28;20759;-77
2023/12/21 08:41:34;;;;;;;1.47;0.20;;;;;;;7.74;100.00;99450.25;5075347;28;20197;-76
2023/12/21 08:43:59;;;;;;;1.27;0.50;;;;;;;7.72;100.00;99443.44;5076880;28;20183;-77
2023/12/21 08:46:25;;;;;;;1.17;0.30;;;;;;;7.71;100.00;99431.41;5078577;28;20184;-79
2023/12/21 08:48:50;;;;;;;0.30;0.30;;;;;;;7.74;100.00;99421.91;5072394;28;20303;-78
2023/12/21 08:51:16;;;;;;;0.80;0.40;;;;;;;7.77;100.00;99434.78;5074541;28;20228;-77
2023/12/21 08:53:44;;;;;;;0.47;0.30;;;;;;;7.78;100.00;99433.91;5071926;28;20216;-77
2023/12/21 08:56:09;;;;;;;0.60;0.40;;;;;;;7.79;100.00;99419.28;5076336;28;20649;-77
2023/12/21 08:58:36;;;;;;;0.20;0.20;;;;;;;7.83;100.00;99422.69;5075892;28;20209;-77
2023/12/21 09:01:01;;;;;;;0.30;0.30;;;;;;;7.82;100.00;99426.16;5075051;28;20599;-78
2023/12/21 09:03:26;;;;;;;0.70;0.37;;;;;;;7.92;100.00;99422.59;5068877;28;20189;-78
2023/12/21 09:05:52;;;;;;;0.43;0.40;;;;;;;7.95;100.00;99412.25;5074954;28;20226;-78
2023/12/21 09:08:18;;;;;;;0.30;0.30;;;;;;;7.99;100.00;99401.03;5075597;28;20212;-79
2023/12/21 09:10:43;;;;;;;0.67;0.30;;;;;;;7.99;100.00;99402.75;5071725;28;20177;-77
2023/12/21 09:13:09;;;;;;;0.73;0.40;;;;;;;8.00;100.00;99412.19;5075421;28;20747;-77
2023/12/21 09:15:36;;;;;;;0.80;0.53;;;;;;;7.99;100.00;99400.16;5075030;28;20199;-78
2023/12/21 09:18:03;;;;;;;0.93;0.40;;;;;;;8.00;100.00;99400.16;5077860;28;20218;-77
2023/12/21 09:20:28;;;;;;;0.53;0.40;;;;;;;7.99;100.00;99411.34;5076591;28;20193;-79
2023/12/21 09:22:53;;;;;;;1.33;0.40;;;;;;;8.07;100.00;99391.47;5073335;28;20188;-77
2023/12/21 09:25:19;;;;;;;0.57;0.50;;;;;;;8.08;100.00;99416.38;5074435;28;20208;-78
2023/12/21 09:27:44;;;;;;;1.30;0.40;;;;;;;8.08;100.00;99408.63;5075791;28;20245;-78
2023/12/21 09:30:10;;;;;;;0.70;0.30;;;;;;;8.13;100.00;99400.84;5072684;28;20211;-78
2023/12/21 09:32:38;;;;;;;0.37;0.20;;;;;;;8.11;100.00;99379.38;5072255;28;20213;-78
2023/12/21 09:35:03;;;;;;;1.03;0.47;;;;;;;8.13;100.00;99372.50;5073299;28;20203;-77
2023/12/21 09:37:29;;;;;;;0.40;0.40;;;;;;;8.14;100.00;99358.75;5072233;28;20188;-78
2023/12/21 09:39:56;;;;;;;0.40;0.20;;;;;;;8.19;100.00;99366.41;5076855;28;20245;-77
2023/12/21 09:42:23;;;;;;;0.30;0.30;;;;;;;8.20;100.00;99368.97;5074353;28;20216;-79
2023/12/21 09:44:49;;;;;;;0.70;0.40;;;;;;;8.27;100.00;99371.44;5075675;28;20212;-77
2023/12/21 09:47:18;;;;;;;0.77;0.40;;;;;;;8.30;100.00;99366.25;5076996;28;20210;-78
2023/12/21 09:49:45;;;;;;;0.20;0.20;;;;;;;8.39;100.00;99356.66;5069148;28;20792;-77
2023/12/21 09:52:12;;;;;;;1.13;0.40;;;;;;;8.42;100.00;99352.34;5072693;28;20211;-78
2023/12/21 09:54:40;;;;;;;0.50;0.40;;;;;;;8.36;100.00;99341.22;5073883;28;20192;-79
2023/12/21 09:57:06;;;;;;;0.30;0.30;;;;;;;8.44;100.00;99359.16;5074378;28;20189;-78
2023/12/21 09:59:35;;;;;;;0.23;0.20;;;;;;;8.46;100.00;99352.25;5075677;28;20217;-78
2023/12/21 10:02:01;;;;;;;0.50;0.30;;;;;;;8.49;100.00;99366.84;5079685;28;20228;-78
2023/12/21 10:04:26;;;;;;;0.30;0.23;;;;;;;8.66;100.00;99351.13;5078284;28;20302;-78
2023/12/21 10:06:52;;;;;;;0.47;0.30;;;;;;;8.50;100.00;99328.16;5079537;28;20217;-78
2023/12/21 10:09:18;;;;;;;0.30;0.20;;;;;;;8.54;100.00;99328.97;5080501;28;20292;-77
2023/12/21 10:11:44;;;;;;;0.77;0.40;;;;;;;8.56;100.00;99300.56;5077314;28;20272;-78
2023/12/21 10:14:21;;;;;;;0.80;0.40;;;;;;;8.54;100.00;99275.69;5079612;28;20302;-79
2023/12/21 10:16:46;;;;;;;0.50;0.30;;;;;;;8.59;100.00;99278.19;5077174;28;20203;-77
2023/12/21 10:19:12;;;;;;;1.93;0.40;;;;;;;8.65;100.00;99270.31;5074103;28;20954;-77
2023/12/21 10:21:41;;;;;;;0.20;0.20;;;;;;;8.73;100.00;99282.25;5081561;28;20211;-78
2023/12/21 10:24:07;;;;;;;0.27;0.27;;;;;;;8.78;100.00;99273.53;5074811;28;20185;-78
2023/12/21 10:26:42;;;;;;;0.20;0.20;;;;;;;8.87;100.00;99274.22;5078465;28;20715;-78
2023/12/21 10:29:07;;;;;;;0.40;0.30;;;;;;;8.97;100.00;99243.06;5075194;28;20560;-77
2023/12/21 10:31:33;;;;;;;0.30;0.30;;;;;;;8.95;100.00;99231.94;5077604;28;20665;-77
2023/12/21 10:33:58;;;;;;;0.40;0.33;;;;;;;8.98;100.00;99207.81;5071466;28;20711;-77
2023/12/21 10:36:23;;;;;;;0.97;0.40;;;;;;;8.97;100.00;99199.22;5081285;28;20735;-78
2023/12/21 10:38:49;;;;;;;0.33;0.33;;;;;;;9.04;100.00;99188.78;5073951;28;20445;-78
2023/12/21 10:41:15;;;;;;;0.20;0.20;;;;;;;9.04;100.00;99174.13;5076189;28;20261;-77
2023/12/21 10:43:42;;;;;;;0.30;0.27;;;;;;;9.03;100.00;99151.78;5073324;28;20211;-78
2023/12/21 10:46:09;;;;;;;0.30;0.30;;;;;;;9.10;100.00;99166.25;5077114;28;20196;-79
2023/12/21 10:48:37;;;;;;;0.37;0.37;;;;;;;9.13;100.00;99152.44;5071968;28;20234;-77
2023/12/21 10:51:04;;;;;;;0.40;0.30;;;;;;;9.19;100.00;99152.31;5079058;28;20189;-78
2023/12/21 10:53:30;;;;;;;0.30;0.20;;;;;;;9.27;100.00;99152.16;5068307;28;20217;-77
2023/12/21 10:55:57;;;;;;;0.80;0.30;;;;;;;9.24;100.00;99183.19;5079577;28;20198;-77
2023/12/21 10:58:24;;;;;;;0.50;0.40;;;;;;;9.21;100.00;99162.59;5081329;28;20299;-76
2023/12/21 11:00:50;;;;;;;0.30;0.30;;;;;;;9.32;100.00;99145.13;5074622;28;20198;-78
2023/12/21 11:03:19;;;;;;;0.50;0.30;;;;;;;9.37;100.00;99125.22;5078337;28;20704;-77
2023/12/21 11:05:45;;;;;;;0.30;0.30;;;;;;;9.39;100.00;99138.09;5080400;28;21174;-77
2023/12/21 11:08:10;;;;;;;1.10;0.30;;;;;;;9.32;100.00;99142.56;5081017;28;20595;-77
2023/12/21 11:10:37;;;;;;;0.67;0.20;;;;;;;9.34;100.00;99142.53;5081144;28;20258;-78
2023/12/21 11:13:03;;;;;;;0.30;0.30;;;;;;;9.30;100.00;99128.84;5070116;28;20213;-78
2023/12/21 11:15:29;;;;;;;0.40;0.23;;;;;;;9.21;100.00;99129.03;5081192;28;20476;-78
2023/12/21 11:17:59;;;;;;;0.50;0.30;;;;;;;9.21;100.00;99134.19;5080719;28;20202;-77
2023/12/21 11:20:31;;;;;;;0.30;0.30;;;;;;;9.21;100.00;99131.63;5080295;28;20219;-78
2023/12/21 11:22:57;;;;;;;0.53;0.40;;;;;;;9.21;100.00;99111.84;5071281;28;20259;-77
2023/12/21 11:25:23;;;;;;;1.43;0.60;;;;;;;9.08;100.00;99110.38;5071642;28;20851;-78